sensor_id;sensor_type;location;lat;lon;timestamp;temperature;humidity
39751;DHT22;37579;51.074;17.004;2023-01-29T00:01:41;23.30;56.40
39751;DHT22;37579;51.074;17.004;2023-01-29T00:04:07;23.30;56.40
39751;DHT22;37579;51.074;17.004;2023-01-29T00:06:33;23.30;56.50
39751;DHT22;37579;51.074;17.004;2023-01-29T00:08:59;23.30;56.50
39751;DHT22;37579;51.074;17.004;2023-01-29T00:11:25;23.30;56.50
39751;DHT22;37579;51.074;17.004;2023-01-29T00:13:51;23.20;56.50
39751;DHT22;37579;51.074;17.004;2023-01-29T00:16:18;23.20;56.50
39751;DHT22;37579;51.074;17.004;2023-01-29T00:18:44;23.20;56.50
39751;DHT22;37579;51.074;17.004;2023-01-29T00:21:18;23.20;56.40
39751;DHT22;37579;51.074;17.004;2023-01-29T00:23:45;23.20;56.50
39751;DHT22;37579;51.074;17.004;2023-01-29T00:26:11;23.20;56.40
39751;DHT22;37579;51.074;17.004;2023-01-29T00:28:42;23.20;56.40
39751;DHT22;37579;51.074;17.004;2023-01-29T00:31:13;23.20;56.40
39751;DHT22;37579;51.074;17.004;2023-01-29T00:33:39;23.20;56.40
39751;DHT22;37579;51.074;17.004;2023-01-29T00:36:09;23.20;56.40
39751;DHT22;37579;51.074;17.004;2023-01-29T00:38:36;23.20;56.50
39751;DHT22;37579;51.074;17.004;2023-01-29T00:41:10;23.20;56.40
39751;DHT22;37579;51.074;17.004;2023-01-29T00:43:55;23.20;56.50
39751;DHT22;37579;51.074;17.004;2023-01-29T00:46:40;23.20;56.50
39751;DHT22;37579;51.074;17.004;2023-01-29T00:49:06;23.10;56.50
39751;DHT22;37579;51.074;17.004;2023-01-29T00:51:33;23.20;56.50
39751;DHT22;37579;51.074;17.004;2023-01-29T00:53:59;23.20;56.50
39751;DHT22;37579;51.074;17.004;2023-01-29T00:56:27;23.10;56.50
39751;DHT22;37579;51.074;17.004;2023-01-29T00:58:54;23.10;56.60
39751;DHT22;37579;51.074;17.004;2023-01-29T01:01:21;23.10;56.60
39751;DHT22;37579;51.074;17.004;2023-01-29T01:04:09;23.10;56.60
39751;DHT22;37579;51.074;17.004;2023-01-29T01:06:42;23.10;56.60
39751;DHT22;37579;51.074;17.004;2023-01-29T01:09:09;23.10;56.70
39751;DHT22;37579;51.074;17.004;2023-01-29T01:11:54;23.10;56.70
39751;DHT22;37579;51.074;17.004;2023-01-29T01:14:20;23.00;56.70
39751;DHT22;37579;51.074;17.004;2023-01-29T01:16:46;23.00;56.70
39751;DHT22;37579;51.074;17.004;2023-01-29T01:19:13;23.00;56.70
39751;DHT22;37579;51.074;17.004;2023-01-29T01:21:39;23.00;56.70
39751;DHT22;37579;51.074;17.004;2023-01-29T01:24:10;23.00;56.70
39751;DHT22;37579;51.074;17.004;2023-01-29T01:26:36;23.00;56.80
39751;DHT22;37579;51.074;17.004;2023-01-29T01:29:02;23.00;56.80
39751;DHT22;37579;51.074;17.004;2023-01-29T01:31:29;23.00;56.80
39751;DHT22;37579;51.074;17.004;2023-01-29T01:33:55;23.00;56.80
39751;DHT22;37579;51.074;17.004;2023-01-29T01:36:21;23.00;56.70
39751;DHT22;37579;51.074;17.004;2023-01-29T01:38:47;23.00;56.80
39751;DHT22;37579;51.074;17.004;2023-01-29T01:41:17;23.00;56.80
39751;DHT22;37579;51.074;17.004;2023-01-29T01:43:55;23.00;56.80
39751;DHT22;37579;51.074;17.004;2023-01-29T01:46:27;22.90;56.80
39751;DHT22;37579;51.074;17.004;2023-01-29T01:49:20;23.00;56.70
39751;DHT22;37579;51.074;17.004;2023-01-29T01:51:51;22.90;56.70
39751;DHT22;37579;51.074;17.004;2023-01-29T01:54:27;23.00;56.70
39751;DHT22;37579;51.074;17.004;2023-01-29T01:57:07;22.90;56.80
39751;DHT22;37579;51.074;17.004;2023-01-29T02:00:04;22.90;56.80
39751;DHT22;37579;51.074;17.004;2023-01-29T02:02:40;22.90;56.80
39751;DHT22;37579;51.074;17.004;2023-01-29T02:05:26;22.90;56.80
39751;DHT22;37579;51.074;17.004;2023-01-29T02:08:11;22.90;56.80
39751;DHT22;37579;51.074;17.004;2023-01-29T02:10:57;22.90;56.80
39751;DHT22;37579;51.074;17.004;2023-01-29T02:13:23;22.90;56.80
39751;DHT22;37579;51.074;17.004;2023-01-29T02:15:49;22.90;56.80
39751;DHT22;37579;51.074;17.004;2023-01-29T02:18:16;22.90;56.80
39751;DHT22;37579;51.074;17.004;2023-01-29T02:20:56;22.90;56.60
39751;DHT22;37579;51.074;17.004;2023-01-29T02:29:00;22.90;56.70
39751;DHT22;37579;51.074;17.004;2023-01-29T02:35:06;22.80;56.70
39751;DHT22;37579;51.074;17.004;2023-01-29T02:40:45;22.80;56.60
39751;DHT22;37579;51.074;17.004;2023-01-29T02:43:29;22.80;56.80
39751;DHT22;37579;51.074;17.004;2023-01-29T02:49:23;22.80;56.60
39751;DHT22;37579;51.074;17.004;2023-01-29T02:51:36;22.80;56.60
39751;DHT22;37579;51.074;17.004;2023-01-29T02:54:23;22.80;56.50
39751;DHT22;37579;51.074;17.004;2023-01-29T02:56:58;22.80;56.60
39751;DHT22;37579;51.074;17.004;2023-01-29T02:59:32;22.80;56.60
39751;DHT22;37579;51.074;17.004;2023-01-29T03:02:06;22.80;56.60
39751;DHT22;37579;51.074;17.004;2023-01-29T03:04:37;22.70;56.60
39751;DHT22;37579;51.074;17.004;2023-01-29T03:07:09;22.70;56.60
39751;DHT22;37579;51.074;17.004;2023-01-29T03:09:58;22.80;56.60
39751;DHT22;37579;51.074;17.004;2023-01-29T03:12:28;22.70;56.60
39751;DHT22;37579;51.074;17.004;2023-01-29T03:15:04;22.70;56.60
39751;DHT22;37579;51.074;17.004;2023-01-29T03:17:55;22.70;56.60
39751;DHT22;37579;51.074;17.004;2023-01-29T03:20:28;22.70;56.50
39751;DHT22;37579;51.074;17.004;2023-01-29T03:23:09;22.70;56.60
39751;DHT22;37579;51.074;17.004;2023-01-29T03:25:37;22.70;56.60
39751;DHT22;37579;51.074;17.004;2023-01-29T03:28:27;22.70;56.60
39751;DHT22;37579;51.074;17.004;2023-01-29T03:31:14;22.70;56.60
39751;DHT22;37579;51.074;17.004;2023-01-29T03:34:12;22.70;56.50
39751;DHT22;37579;51.074;17.004;2023-01-29T03:39:21;22.60;56.50
39751;DHT22;37579;51.074;17.004;2023-01-29T03:42:09;22.70;56.50
39751;DHT22;37579;51.074;17.004;2023-01-29T03:44:59;22.60;56.50
39751;DHT22;37579;51.074;17.004;2023-01-29T03:50:45;22.60;56.40
39751;DHT22;37579;51.074;17.004;2023-01-29T03:53:29;22.60;56.50
39751;DHT22;37579;51.074;17.004;2023-01-29T03:56:07;22.60;56.40
39751;DHT22;37579;51.074;17.004;2023-01-29T03:58:51;22.60;56.40
39751;DHT22;37579;51.074;17.004;2023-01-29T04:01:29;22.60;56.40
39751;DHT22;37579;51.074;17.004;2023-01-29T04:04:14;22.60;56.40
39751;DHT22;37579;51.074;17.004;2023-01-29T04:06:44;22.50;56.40
39751;DHT22;37579;51.074;17.004;2023-01-29T04:09:16;22.60;56.30
39751;DHT22;37579;51.074;17.004;2023-01-29T04:11:56;22.60;56.40
39751;DHT22;37579;51.074;17.004;2023-01-29T04:14:25;22.50;56.30
39751;DHT22;37579;51.074;17.004;2023-01-29T04:16:56;22.60;56.20
39751;DHT22;37579;51.074;17.004;2023-01-29T04:19:34;22.60;56.20
39751;DHT22;37579;51.074;17.004;2023-01-29T04:22:06;22.70;56.10
39751;DHT22;37579;51.074;17.004;2023-01-29T04:24:35;22.70;55.90
39751;DHT22;37579;51.074;17.004;2023-01-29T04:35:00;22.80;55.50
39751;DHT22;37579;51.074;17.004;2023-01-29T04:37:43;22.80;55.40
39751;DHT22;37579;51.074;17.004;2023-01-29T04:41:10;22.80;55.40
39751;DHT22;37579;51.074;17.004;2023-01-29T04:43:18;22.80;55.30
39751;DHT22;37579;51.074;17.004;2023-01-29T04:46:12;22.80;55.30
39751;DHT22;37579;51.074;17.004;2023-01-29T04:51:45;22.80;55.30
39751;DHT22;37579;51.074;17.004;2023-01-29T04:56:56;22.80;55.30
39751;DHT22;37579;51.074;17.004;2023-01-29T04:59:44;22.70;55.30
39751;DHT22;37579;51.074;17.004;2023-01-29T05:02:12;22.80;55.30
39751;DHT22;37579;51.074;17.004;2023-01-29T05:04:40;22.80;55.30
39751;DHT22;37579;51.074;17.004;2023-01-29T05:07:10;22.70;55.20
39751;DHT22;37579;51.074;17.004;2023-01-29T05:09:38;22.70;55.20
39751;DHT22;37579;51.074;17.004;2023-01-29T05:12:06;22.70;55.20
39751;DHT22;37579;51.074;17.004;2023-01-29T05:14:33;22.70;55.20
39751;DHT22;37579;51.074;17.004;2023-01-29T05:17:02;22.70;55.30
39751;DHT22;37579;51.074;17.004;2023-01-29T05:19:29;22.70;55.30
39751;DHT22;37579;51.074;17.004;2023-01-29T05:21:55;22.70;55.20
39751;DHT22;37579;51.074;17.004;2023-01-29T05:24:23;22.70;55.10
39751;DHT22;37579;51.074;17.004;2023-01-29T05:26:51;22.70;55.10
39751;DHT22;37579;51.074;17.004;2023-01-29T05:29:36;22.70;55.20
39751;DHT22;37579;51.074;17.004;2023-01-29T05:32:03;22.70;55.20
39751;DHT22;37579;51.074;17.004;2023-01-29T05:34:29;22.70;55.20
39751;DHT22;37579;51.074;17.004;2023-01-29T05:36:55;22.70;55.20
39751;DHT22;37579;51.074;17.004;2023-01-29T05:39:21;22.70;55.20
39751;DHT22;37579;51.074;17.004;2023-01-29T05:41:47;22.60;55.20
39751;DHT22;37579;51.074;17.004;2023-01-29T05:44:13;22.70;55.10
39751;DHT22;37579;51.074;17.004;2023-01-29T05:46:39;22.70;55.10
39751;DHT22;37579;51.074;17.004;2023-01-29T05:49:05;22.70;55.00
39751;DHT22;37579;51.074;17.004;2023-01-29T05:51:31;22.70;54.90
39751;DHT22;37579;51.074;17.004;2023-01-29T05:53:57;22.70;55.00
39751;DHT22;37579;51.074;17.004;2023-01-29T05:56:22;22.70;55.00
39751;DHT22;37579;51.074;17.004;2023-01-29T05:58:50;22.70;55.00
39751;DHT22;37579;51.074;17.004;2023-01-29T06:01:21;22.70;55.00
39751;DHT22;37579;51.074;17.004;2023-01-29T06:03:47;22.70;55.10
39751;DHT22;37579;51.074;17.004;2023-01-29T06:06:14;22.70;55.10
39751;DHT22;37579;51.074;17.004;2023-01-29T06:08:40;22.60;55.10
39751;DHT22;37579;51.074;17.004;2023-01-29T06:11:09;22.60;55.10
39751;DHT22;37579;51.074;17.004;2023-01-29T06:13:35;22.60;55.10
39751;DHT22;37579;51.074;17.004;2023-01-29T06:16:04;22.60;55.20
39751;DHT22;37579;51.074;17.004;2023-01-29T06:18:31;22.60;55.00
39751;DHT22;37579;51.074;17.004;2023-01-29T06:21:01;22.70;55.10
39751;DHT22;37579;51.074;17.004;2023-01-29T06:23:27;22.70;54.80
39751;DHT22;37579;51.074;17.004;2023-01-29T06:25:58;22.80;54.60
39751;DHT22;37579;51.074;17.004;2023-01-29T06:28:23;22.80;54.40
39751;DHT22;37579;51.074;17.004;2023-01-29T06:30:49;22.90;54.40
39751;DHT22;37579;51.074;17.004;2023-01-29T06:33:15;22.90;54.20
39751;DHT22;37579;51.074;17.004;2023-01-29T06:35:41;22.90;54.20
39751;DHT22;37579;51.074;17.004;2023-01-29T06:38:07;23.00;54.10
39751;DHT22;37579;51.074;17.004;2023-01-29T06:40:32;23.00;54.00
39751;DHT22;37579;51.074;17.004;2023-01-29T06:43:01;23.00;54.00
39751;DHT22;37579;51.074;17.004;2023-01-29T06:45:27;23.00;53.90
39751;DHT22;37579;51.074;17.004;2023-01-29T06:47:53;23.00;53.90
39751;DHT22;37579;51.074;17.004;2023-01-29T06:50:18;23.00;53.90
39751;DHT22;37579;51.074;17.004;2023-01-29T06:52:44;23.00;53.80
39751;DHT22;37579;51.074;17.004;2023-01-29T06:55:10;23.10;53.80
39751;DHT22;37579;51.074;17.004;2023-01-29T06:57:36;23.10;53.80
39751;DHT22;37579;51.074;17.004;2023-01-29T07:00:03;23.10;53.70
39751;DHT22;37579;51.074;17.004;2023-01-29T07:02:29;23.10;53.70
39751;DHT22;37579;51.074;17.004;2023-01-29T07:04:55;23.10;53.70
39751;DHT22;37579;51.074;17.004;2023-01-29T07:07:20;23.10;53.70
39751;DHT22;37579;51.074;17.004;2023-01-29T07:09:46;23.10;53.60
39751;DHT22;37579;51.074;17.004;2023-01-29T07:12:12;23.00;53.50
39751;DHT22;37579;51.074;17.004;2023-01-29T07:14:38;23.10;53.60
39751;DHT22;37579;51.074;17.004;2023-01-29T07:17:03;23.00;53.50
39751;DHT22;37579;51.074;17.004;2023-01-29T07:19:29;23.00;53.50
39751;DHT22;37579;51.074;17.004;2023-01-29T07:21:55;23.10;53.50
39751;DHT22;37579;51.074;17.004;2023-01-29T07:24:21;23.00;53.40
39751;DHT22;37579;51.074;17.004;2023-01-29T07:26:47;23.00;53.40
39751;DHT22;37579;51.074;17.004;2023-01-29T07:29:12;23.10;53.50
39751;DHT22;37579;51.074;17.004;2023-01-29T07:31:38;23.00;53.40
39751;DHT22;37579;51.074;17.004;2023-01-29T07:34:04;23.10;53.40
39751;DHT22;37579;51.074;17.004;2023-01-29T07:36:30;23.00;53.40
39751;DHT22;37579;51.074;17.004;2023-01-29T07:38:55;23.00;53.40
39751;DHT22;37579;51.074;17.004;2023-01-29T07:41:21;23.00;53.40
39751;DHT22;37579;51.074;17.004;2023-01-29T07:43:47;23.00;53.40
39751;DHT22;37579;51.074;17.004;2023-01-29T07:46:13;23.00;53.40
39751;DHT22;37579;51.074;17.004;2023-01-29T07:48:39;23.00;53.30
39751;DHT22;37579;51.074;17.004;2023-01-29T07:51:05;23.00;53.30
39751;DHT22;37579;51.074;17.004;2023-01-29T07:53:31;23.00;53.30
39751;DHT22;37579;51.074;17.004;2023-01-29T07:55:57;23.00;53.30
39751;DHT22;37579;51.074;17.004;2023-01-29T07:58:23;23.00;53.30
39751;DHT22;37579;51.074;17.004;2023-01-29T08:00:49;23.00;53.30
39751;DHT22;37579;51.074;17.004;2023-01-29T08:03:17;23.00;53.40
39751;DHT22;37579;51.074;17.004;2023-01-29T08:05:44;23.00;53.40
39751;DHT22;37579;51.074;17.004;2023-01-29T08:08:11;23.00;53.50
39751;DHT22;37579;51.074;17.004;2023-01-29T08:10:38;22.90;53.60
39751;DHT22;37579;51.074;17.004;2023-01-29T08:13:05;22.90;53.60
39751;DHT22;37579;51.074;17.004;2023-01-29T08:15:32;22.90;53.60
39751;DHT22;37579;51.074;17.004;2023-01-29T08:18:00;23.00;53.60
39751;DHT22;37579;51.074;17.004;2023-01-29T08:20:26;23.00;53.60
39751;DHT22;37579;51.074;17.004;2023-01-29T08:22:59;23.00;53.60
39751;DHT22;37579;51.074;17.004;2023-01-29T08:25:24;23.00;53.50
39751;DHT22;37579;51.074;17.004;2023-01-29T08:27:50;23.00;53.60
39751;DHT22;37579;51.074;17.004;2023-01-29T08:30:16;23.00;53.60
39751;DHT22;37579;51.074;17.004;2023-01-29T08:32:42;23.00;53.60
39751;DHT22;37579;51.074;17.004;2023-01-29T08:35:08;23.00;53.60
39751;DHT22;37579;51.074;17.004;2023-01-29T08:37:34;23.00;53.60
39751;DHT22;37579;51.074;17.004;2023-01-29T08:40:00;23.00;53.60
39751;DHT22;37579;51.074;17.004;2023-01-29T08:42:25;23.10;53.70
39751;DHT22;37579;51.074;17.004;2023-01-29T08:44:51;23.10;53.50
39751;DHT22;37579;51.074;17.004;2023-01-29T08:47:17;23.10;53.50
39751;DHT22;37579;51.074;17.004;2023-01-29T08:49:43;23.20;53.40
39751;DHT22;37579;51.074;17.004;2023-01-29T08:52:08;23.20;53.40
39751;DHT22;37579;51.074;17.004;2023-01-29T08:54:34;23.30;53.40
39751;DHT22;37579;51.074;17.004;2023-01-29T08:57:00;23.30;53.40
39751;DHT22;37579;51.074;17.004;2023-01-29T08:59:26;23.40;53.60
39751;DHT22;37579;51.074;17.004;2023-01-29T09:01:52;23.40;54.00
39751;DHT22;37579;51.074;17.004;2023-01-29T09:04:17;23.40;54.20
39751;DHT22;37579;51.074;17.004;2023-01-29T09:06:43;23.40;54.40
39751;DHT22;37579;51.074;17.004;2023-01-29T09:09:10;23.40;54.80
39751;DHT22;37579;51.074;17.004;2023-01-29T09:11:36;23.40;55.00
39751;DHT22;37579;51.074;17.004;2023-01-29T09:14:02;23.40;55.00
39751;DHT22;37579;51.074;17.004;2023-01-29T09:16:28;23.40;54.90
39751;DHT22;37579;51.074;17.004;2023-01-29T09:18:54;23.40;54.90
39751;DHT22;37579;51.074;17.004;2023-01-29T09:21:20;23.40;54.80
39751;DHT22;37579;51.074;17.004;2023-01-29T09:23:45;23.40;54.90
39751;DHT22;37579;51.074;17.004;2023-01-29T09:26:11;23.40;54.80
39751;DHT22;37579;51.074;17.004;2023-01-29T09:28:37;23.40;54.70
39751;DHT22;37579;51.074;17.004;2023-01-29T09:31:03;23.40;54.70
39751;DHT22;37579;51.074;17.004;2023-01-29T09:33:29;23.40;54.70
39751;DHT22;37579;51.074;17.004;2023-01-29T09:35:55;23.50;54.60
39751;DHT22;37579;51.074;17.004;2023-01-29T09:38:21;23.40;54.50
39751;DHT22;37579;51.074;17.004;2023-01-29T09:43:17;23.40;54.50
39751;DHT22;37579;51.074;17.004;2023-01-29T09:45:59;23.40;54.70
39751;DHT22;37579;51.074;17.004;2023-01-29T09:48:28;23.40;54.90
39751;DHT22;37579;51.074;17.004;2023-01-29T09:50:57;23.50;55.00
39751;DHT22;37579;51.074;17.004;2023-01-29T09:53:33;23.60;55.10
39751;DHT22;37579;51.074;17.004;2023-01-29T09:56:29;23.60;55.00
39751;DHT22;37579;51.074;17.004;2023-01-29T09:58:57;23.60;55.00
39751;DHT22;37579;51.074;17.004;2023-01-29T10:07:55;23.60;55.20
39751;DHT22;37579;51.074;17.004;2023-01-29T10:10:42;23.60;55.10
39751;DHT22;37579;51.074;17.004;2023-01-29T10:15:59;23.70;55.30
39751;DHT22;37579;51.074;17.004;2023-01-29T10:26:55;23.80;54.90
39751;DHT22;37579;51.074;17.004;2023-01-29T10:29:22;23.80;55.20
39751;DHT22;37579;51.074;17.004;2023-01-29T10:31:52;23.80;55.20
39751;DHT22;37579;51.074;17.004;2023-01-29T10:34:39;23.80;55.40
39751;DHT22;37579;51.074;17.004;2023-01-29T10:37:17;23.80;55.30
39751;DHT22;37579;51.074;17.004;2023-01-29T10:39:43;23.80;55.40
39751;DHT22;37579;51.074;17.004;2023-01-29T10:42:45;23.60;55.40
39751;DHT22;37579;51.074;17.004;2023-01-29T10:50:51;23.50;55.60
39751;DHT22;37579;51.074;17.004;2023-01-29T11:00:57;23.40;55.60
39751;DHT22;37579;51.074;17.004;2023-01-29T11:03:26;23.40;55.70
39751;DHT22;37579;51.074;17.004;2023-01-29T11:06:17;23.30;56.20
39751;DHT22;37579;51.074;17.004;2023-01-29T11:11:17;23.30;55.70
39751;DHT22;37579;51.074;17.004;2023-01-29T11:13:59;23.20;55.60
39751;DHT22;37579;51.074;17.004;2023-01-29T11:16:29;23.20;55.60
39751;DHT22;37579;51.074;17.004;2023-01-29T11:18:59;23.20;55.70
39751;DHT22;37579;51.074;17.004;2023-01-29T11:21:27;23.10;55.80
39751;DHT22;37579;51.074;17.004;2023-01-29T11:24:25;23.10;55.80
39751;DHT22;37579;51.074;17.004;2023-01-29T11:26:54;23.10;56.20
39751;DHT22;37579;51.074;17.004;2023-01-29T11:31:52;23.00;56.40
39751;DHT22;37579;51.074;17.004;2023-01-29T11:34:22;23.10;56.40
39751;DHT22;37579;51.074;17.004;2023-01-29T11:37:03;23.00;56.40
39751;DHT22;37579;51.074;17.004;2023-01-29T11:39:30;23.00;56.40
39751;DHT22;37579;51.074;17.004;2023-01-29T11:42:03;23.00;56.60
39751;DHT22;37579;51.074;17.004;2023-01-29T11:44:32;23.10;57.10
39751;DHT22;37579;51.074;17.004;2023-01-29T11:49:47;23.20;57.30
39751;DHT22;37579;51.074;17.004;2023-01-29T11:52:16;23.30;57.30
39751;DHT22;37579;51.074;17.004;2023-01-29T11:54:50;23.30;57.40
39751;DHT22;37579;51.074;17.004;2023-01-29T11:59:57;23.40;57.50
39751;DHT22;37579;51.074;17.004;2023-01-29T12:02:36;23.40;57.40
39751;DHT22;37579;51.074;17.004;2023-01-29T12:07:41;23.60;56.80
39751;DHT22;37579;51.074;17.004;2023-01-29T12:15:29;23.80;56.50
39751;DHT22;37579;51.074;17.004;2023-01-29T12:20:42;23.80;56.30
39751;DHT22;37579;51.074;17.004;2023-01-29T12:25:43;23.90;56.30
39751;DHT22;37579;51.074;17.004;2023-01-29T12:28:21;23.90;57.00
39751;DHT22;37579;51.074;17.004;2023-01-29T12:30:59;23.90;57.30
39751;DHT22;37579;51.074;17.004;2023-01-29T12:33:51;24.00;57.30
39751;DHT22;37579;51.074;17.004;2023-01-29T12:36:25;24.00;57.30
39751;DHT22;37579;51.074;17.004;2023-01-29T12:38:53;24.00;57.20
39751;DHT22;37579;51.074;17.004;2023-01-29T12:41:31;24.00;57.40
39751;DHT22;37579;51.074;17.004;2023-01-29T12:46:56;24.00;57.60
39751;DHT22;37579;51.074;17.004;2023-01-29T12:49:25;24.00;57.80
39751;DHT22;37579;51.074;17.004;2023-01-29T12:54:41;24.00;58.10
39751;DHT22;37579;51.074;17.004;2023-01-29T12:57:22;23.90;58.40
39751;DHT22;37579;51.074;17.004;2023-01-29T13:00:11;23.90;58.60
39751;DHT22;37579;51.074;17.004;2023-01-29T13:02:49;23.90;59.40
39751;DHT22;37579;51.074;17.004;2023-01-29T13:07:53;23.80;59.60
39751;DHT22;37579;51.074;17.004;2023-01-29T13:10:28;23.80;59.60
39751;DHT22;37579;51.074;17.004;2023-01-29T13:13:04;23.80;59.40
39751;DHT22;37579;51.074;17.004;2023-01-29T13:15:35;23.80;59.40
39751;DHT22;37579;51.074;17.004;2023-01-29T13:18:39;23.70;59.40
39751;DHT22;37579;51.074;17.004;2023-01-29T13:21:15;23.60;59.30
39751;DHT22;37579;51.074;17.004;2023-01-29T13:23:45;23.60;59.30
39751;DHT22;37579;51.074;17.004;2023-01-29T13:26:12;23.60;59.30
39751;DHT22;37579;51.074;17.004;2023-01-29T13:28:38;23.60;59.20
39751;DHT22;37579;51.074;17.004;2023-01-29T13:31:26;23.70;59.20
39751;DHT22;37579;51.074;17.004;2023-01-29T13:34:27;23.70;59.00
39751;DHT22;37579;51.074;17.004;2023-01-29T13:37:20;23.80;59.00
39751;DHT22;37579;51.074;17.004;2023-01-29T13:39:51;23.70;58.90
39751;DHT22;37579;51.074;17.004;2023-01-29T13:42:24;23.70;58.80
39751;DHT22;37579;51.074;17.004;2023-01-29T13:44:54;23.80;58.70
39751;DHT22;37579;51.074;17.004;2023-01-29T13:47:26;23.70;58.70
39751;DHT22;37579;51.074;17.004;2023-01-29T13:50:28;23.70;58.70
39751;DHT22;37579;51.074;17.004;2023-01-29T13:52:56;23.70;58.70
39751;DHT22;37579;51.074;17.004;2023-01-29T13:55:29;23.70;58.80
39751;DHT22;37579;51.074;17.004;2023-01-29T13:58:03;23.70;58.70
39751;DHT22;37579;51.074;17.004;2023-01-29T14:07:59;23.70;58.50
39751;DHT22;37579;51.074;17.004;2023-01-29T14:10:27;23.60;58.80
39751;DHT22;37579;51.074;17.004;2023-01-29T14:18:25;23.70;59.20
39751;DHT22;37579;51.074;17.004;2023-01-29T14:21:24;23.60;59.30
39751;DHT22;37579;51.074;17.004;2023-01-29T14:23:57;23.60;59.60
39751;DHT22;37579;51.074;17.004;2023-01-29T14:26:32;23.60;60.00
39751;DHT22;37579;51.074;17.004;2023-01-29T14:29:13;23.60;60.40
39751;DHT22;37579;51.074;17.004;2023-01-29T14:31:59;23.60;60.30
39751;DHT22;37579;51.074;17.004;2023-01-29T14:34:32;23.50;60.30
39751;DHT22;37579;51.074;17.004;2023-01-29T14:37:34;23.50;60.70
39751;DHT22;37579;51.074;17.004;2023-01-29T14:45:38;23.10;60.20
39751;DHT22;37579;51.074;17.004;2023-01-29T14:53:02;23.30;59.40
39751;DHT22;37579;51.074;17.004;2023-01-29T14:55:41;23.30;58.70
39751;DHT22;37579;51.074;17.004;2023-01-29T14:58:14;23.30;58.60
39751;DHT22;37579;51.074;17.004;2023-01-29T15:00:43;23.30;58.60
39751;DHT22;37579;51.074;17.004;2023-01-29T15:03:27;23.40;58.40
39751;DHT22;37579;51.074;17.004;2023-01-29T15:05:54;23.40;58.20
39751;DHT22;37579;51.074;17.004;2023-01-29T15:08:34;23.40;58.00
39751;DHT22;37579;51.074;17.004;2023-01-29T15:11:07;23.40;57.90
39751;DHT22;37579;51.074;17.004;2023-01-29T15:13:56;23.40;57.80
39751;DHT22;37579;51.074;17.004;2023-01-29T15:16:31;23.40;57.80
39751;DHT22;37579;51.074;17.004;2023-01-29T15:19:40;23.40;57.70
39751;DHT22;37579;51.074;17.004;2023-01-29T15:24:30;23.50;57.50
39751;DHT22;37579;51.074;17.004;2023-01-29T15:26:56;23.50;57.50
39751;DHT22;37579;51.074;17.004;2023-01-29T15:29:25;23.50;57.50
39751;DHT22;37579;51.074;17.004;2023-01-29T15:31:52;23.50;57.60
39751;DHT22;37579;51.074;17.004;2023-01-29T15:34:18;23.50;58.30
39751;DHT22;37579;51.074;17.004;2023-01-29T15:36:46;23.50;57.60
39751;DHT22;37579;51.074;17.004;2023-01-29T15:39:23;23.40;57.70
39751;DHT22;37579;51.074;17.004;2023-01-29T15:41:50;23.50;57.60
39751;DHT22;37579;51.074;17.004;2023-01-29T15:44:29;23.50;57.60
39751;DHT22;37579;51.074;17.004;2023-01-29T15:46:58;23.50;57.60
39751;DHT22;37579;51.074;17.004;2023-01-29T15:49:34;23.40;57.60
39751;DHT22;37579;51.074;17.004;2023-01-29T15:52:06;23.40;57.60
39751;DHT22;37579;51.074;17.004;2023-01-29T15:54:33;23.40;58.20
39751;DHT22;37579;51.074;17.004;2023-01-29T15:57:01;23.40;57.20
39751;DHT22;37579;51.074;17.004;2023-01-29T15:59:31;23.40;57.00
39751;DHT22;37579;51.074;17.004;2023-01-29T16:05:17;23.40;56.80
39751;DHT22;37579;51.074;17.004;2023-01-29T16:07:45;23.40;56.70
39751;DHT22;37579;51.074;17.004;2023-01-29T16:10:28;23.40;56.80
39751;DHT22;37579;51.074;17.004;2023-01-29T16:12:56;23.40;56.70
39751;DHT22;37579;51.074;17.004;2023-01-29T16:17:55;23.30;56.80
39751;DHT22;37579;51.074;17.004;2023-01-29T16:20:43;23.30;56.40
39751;DHT22;37579;51.074;17.004;2023-01-29T16:23:26;23.30;56.20
39751;DHT22;37579;51.074;17.004;2023-01-29T16:26:00;23.40;56.30
39751;DHT22;37579;51.074;17.004;2023-01-29T16:28:26;23.40;56.20
39751;DHT22;37579;51.074;17.004;2023-01-29T16:30:58;23.40;56.20
39751;DHT22;37579;51.074;17.004;2023-01-29T16:33:37;23.40;56.50
39751;DHT22;37579;51.074;17.004;2023-01-29T16:36:16;23.50;56.60
39751;DHT22;37579;51.074;17.004;2023-01-29T16:38:46;23.50;56.80
39751;DHT22;37579;51.074;17.004;2023-01-29T16:41:34;23.50;57.00
39751;DHT22;37579;51.074;17.004;2023-01-29T16:44:29;23.50;57.10
39751;DHT22;37579;51.074;17.004;2023-01-29T16:46:48;23.50;57.20
39751;DHT22;37579;51.074;17.004;2023-01-29T16:51:56;23.60;57.20
39751;DHT22;37579;51.074;17.004;2023-01-29T16:54:41;23.70;57.20
39751;DHT22;37579;51.074;17.004;2023-01-29T16:57:15;23.70;57.10
39751;DHT22;37579;51.074;17.004;2023-01-29T16:59:42;23.80;57.20
39751;DHT22;37579;51.074;17.004;2023-01-29T17:02:25;23.80;57.80
39751;DHT22;37579;51.074;17.004;2023-01-29T17:04:53;23.80;57.70
39751;DHT22;37579;51.074;17.004;2023-01-29T17:07:21;23.90;57.10
39751;DHT22;37579;51.074;17.004;2023-01-29T17:09:57;23.90;57.00
39751;DHT22;37579;51.074;17.004;2023-01-29T17:12:25;23.90;57.00
39751;DHT22;37579;51.074;17.004;2023-01-29T17:14:57;23.90;57.00
39751;DHT22;37579;51.074;17.004;2023-01-29T17:17:34;23.90;57.00
39751;DHT22;37579;51.074;17.004;2023-01-29T17:20:30;24.00;57.00
39751;DHT22;37579;51.074;17.004;2023-01-29T17:22:56;24.00;57.00
39751;DHT22;37579;51.074;17.004;2023-01-29T17:25:22;24.00;57.00
39751;DHT22;37579;51.074;17.004;2023-01-29T17:27:48;24.00;56.90
39751;DHT22;37579;51.074;17.004;2023-01-29T17:30:18;24.00;57.00
39751;DHT22;37579;51.074;17.004;2023-01-29T17:32:45;24.00;57.00
39751;DHT22;37579;51.074;17.004;2023-01-29T17:35:12;23.90;56.90
39751;DHT22;37579;51.074;17.004;2023-01-29T17:37:38;23.90;57.60
39751;DHT22;37579;51.074;17.004;2023-01-29T17:40:20;23.90;57.10
39751;DHT22;37579;51.074;17.004;2023-01-29T17:42:48;23.90;57.10
39751;DHT22;37579;51.074;17.004;2023-01-29T17:45:14;23.90;57.10
39751;DHT22;37579;51.074;17.004;2023-01-29T17:47:40;23.90;57.30
39751;DHT22;37579;51.074;17.004;2023-01-29T17:52:44;23.80;57.10
39751;DHT22;37579;51.074;17.004;2023-01-29T17:55:10;23.80;57.20
39751;DHT22;37579;51.074;17.004;2023-01-29T17:57:36;23.60;57.40
39751;DHT22;37579;51.074;17.004;2023-01-29T18:00:02;23.60;57.40
39751;DHT22;37579;51.074;17.004;2023-01-29T18:02:32;23.50;57.40